Buoy 46762

sailwx.info

Track history (hours):
 
Tides and Currents Weather Stations Pressure Air Temp Water Temp Dewpoint Dewpoint Depression Visibility Wind Speed Wind Dir Waves Ship Positions

Drifting buoy 46762

Last reported at 2014-Dec-20 18:00 UTC. Time now 2014-Dec-20 20:07 UTC.
Position N 54°09' W 144°05'.

Barometer 974.8 mb
Water temperature 8.2 ° C

Date/timePositionNaut miles runAvg speedWind from/ knotsBaromVisibWave heightAir tempDewpointWater temp
2014-Dec-20 18:00N 54°09' W 144°05'0 0.0 974.8 8.2
2014-Dec-20 17:00N 54°09' W 144°05'1 0.8 974.2 8.2
2014-Dec-20 16:00N 54°09' W 144°05'0 0.0 973.8 8.2
2014-Dec-20 15:00N 54°09' W 144°05'1 1.2 973.5 8.2
2014-Dec-20 14:00N 54°10' W 144°05'0 0.0 973.3 8.2
2014-Dec-20 13:00N 54°10' W 144°05'1 1.1 973.3 8.1
2014-Dec-20 12:00N 54°10' W 144°06'2 1.8 973.2 8.2
2014-Dec-20 11:00N 54°09' W 144°05'2 1.8 973.1 8.1
2014-Dec-20 10:00N 54°10' W 144°06'2 1.8 973.2 8.1
2014-Dec-20 09:00N 54°09' W 144°05'0 0.0 973.0 8.1
2014-Dec-20 07:00N 54°09' W 144°05'0 0.4 973.0 8.1
2014-Dec-20 06:00N 54°08' W 144°05'1 1.0 973.4 8.2
2014-Dec-20 05:00N 54°08' W 144°05'1 1.1 973.5 8.2
2014-Dec-20 04:00N 54°07' W 144°03'0 0.2 973.6 8.2
2014-Dec-20 03:00N 54°07' W 144°03'1 0.8 973.8 8.2
2014-Dec-20 02:00N 54°07' W 144°01'1 1.2 974.0 8.2
2014-Dec-20 01:00N 54°08' W 144°00'1 1.0 974.0 8.2
2014-Dec-20 00:00N 54°09' W 143°60'2 2.2 974.0 8.2
2014-Dec-19 23:00N 54°09' W 144°03'0 0.0 974.1 8.2
2014-Dec-19 22:00N 54°09' W 144°03'0 0.2 974.4 8.2
2014-Dec-19 21:00N 54°09' W 144°03'1 1.3 974.8 8.2
2014-Dec-19 20:00N 54°10' W 144°01'2 1.8 975.1 8.2
2014-Dec-19 19:00N 54°08' W 144°00'3 3.0 975.1 8.2
2014-Dec-19 18:00N 54°09' W 144°05'4 3.6 974.8 8.2
2014-Dec-19 17:00N 54°07' W 143°60'1 1.1 974.8 8.2
2014-Dec-19 16:00N 54°06' W 143°58'0 0.0 974.8 8.2
2014-Dec-19 15:00N 54°06' W 143°58'0 0.1 974.9 8.2
2014-Dec-19 14:00N 54°06' W 143°58'2 1.7 975.1 8.2
2014-Dec-19 13:00N 54°06' W 143°56'1 1.4 975.4 8.2
2014-Dec-19 12:00N 54°07' W 143°56'1 0.8 975.8 8.2
2014-Dec-19 11:00N 54°07' W 143°58'1 0.3 975.9 8.2
2014-Dec-19 09:00N 54°08' W 143°58'1 0.4 976.1 8.2
2014-Dec-19 07:00N 54°08' W 143°56'3 2.6 975.8 8.2
2014-Dec-19 06:00N 54°05' W 143°58'0 0.0 976.0 8.2
2014-Dec-19 05:00N 54°05' W 143°58'0 0.0 976.1 8.2
2014-Dec-19 04:00N 54°05' W 143°58'1 0.7 976.1 8.2
2014-Dec-19 03:00N 54°06' W 143°57'2 1.5 976.1 8.2
2014-Dec-19 02:00N 54°05' W 143°56'1 1.4 976.0 8.2
2014-Dec-19 01:00N 54°06' W 143°54'1 1.0 975.8 8.2
2014-Dec-19 00:00N 54°07' W 143°54'0 0.0 975.6 8.3
2014-Dec-18 23:00N 54°07' W 143°54'1 0.5 975.9 8.3
2014-Dec-18 21:00N 54°06' W 143°52'0 0.0 976.8 8.3
2014-Dec-18 20:00N 54°06' W 143°52'1 0.9 977.2 8.3
2014-Dec-18 19:00N 54°06' W 143°53'0 0.0 977.0 8.3
2014-Dec-18 18:00N 54°06' W 143°53'1 0.8 977.1 8.2
2014-Dec-18 17:00N 54°05' W 143°53'1 0.6 976.8 8.2
2014-Dec-18 16:00N 54°06' W 143°53'1 1.3 976.8 8.2
2014-Dec-18 15:00N 54°05' W 143°53'1 0.9 976.6 8.2
2014-Dec-18 14:00N 54°04' W 143°51'1 0.5 976.6 8.3
2014-Dec-18 13:00N 54°04' W 143°50'0 0.0 976.5 8.2
2014-Dec-18 12:00N 54°04' W 143°50'2 2.1 976.8 8.3
2014-Dec-18 11:00N 54°03' W 143°48'0 0.0 978.7 8.3
2014-Dec-18 09:00N 54°03' W 143°48'0 0.0 980.5 8.3
2014-Dec-18 07:00N 54°03' W 143°48'0 0.0 982.1 8.3
2014-Dec-18 06:00N 54°03' W 143°48'1 1.0 983.8 8.3
2014-Dec-18 05:00N 54°03' W 143°47'2 1.6 985.1 8.3
2014-Dec-18 04:00N 54°02' W 143°48'1 0.7 986.6 8.3
2014-Dec-18 03:00N 54°01' W 143°48'1 0.9 988.3 8.3
2014-Dec-18 02:00N 54°02' W 143°47'0 0.4 989.5 8.3
2014-Dec-18 01:00N 54°01' W 143°47'3 2.7 990.7 8.3
2014-Dec-18 00:00N 54°03' W 143°44'2 1.8 991.5 8.3
2014-Dec-17 23:00N 54°02' W 143°44'0 0.0 993.2 8.3
2014-Dec-17 22:00N 54°02' W 143°44'1 1.4 994.6 8.3
2014-Dec-17 21:00N 54°02' W 143°46'2 1.1 996.3 8.3
2014-Dec-17 19:00N 53°60' W 143°46'2 0.9 998.1 8.3
2014-Dec-17 17:00N 54°02' W 143°45'2 1.6 999.0 8.3
2014-Dec-17 16:00N 54°01' W 143°43'0 0.0 999.4 8.3
2014-Dec-17 15:00N 54°01' W 143°43'0 0.1 999.9 8.3
2014-Dec-17 14:00N 54°01' W 143°43'2 2.0 1000.2 8.3
2014-Dec-17 13:00N 54°01' W 143°40'0 0.0 1000.7 8.3
2014-Dec-17 12:00N 54°01' W 143°40'0 0.2 1000.4 8.3
2014-Dec-17 11:00N 54°01' W 143°39'1 0.6 999.9 8.3
2014-Dec-17 10:00N 54°01' W 143°40'0 0.0 999.0 8.3
2014-Dec-17 09:00N 54°01' W 143°40'0 0.0 998.6 8.3
2014-Dec-17 08:00N 54°01' W 143°40'0 0.2 998.2 8.3
2014-Dec-17 06:00N 54°00' W 143°41'2 1.6 996.7 8.3
2014-Dec-17 05:00N 54°01' W 143°38'1 1.3 996.0 8.3
2014-Dec-17 04:00N 54°00' W 143°40'0 0.0 995.3 8.3
2014-Dec-17 03:00N 54°00' W 143°40'1 1.3 994.8 8.3
2014-Dec-17 02:00N 53°60' W 143°38'0 0.0 994.5 8.4
2014-Dec-17 01:00N 53°60' W 143°38'0 0.3 994.5 8.4
2014-Dec-17 00:00N 53°60' W 143°37'0 0.3 994.5 8.4
2014-Dec-16 23:00N 53°60' W 143°37'1 0.4 994.2 8.4
2014-Dec-16 21:00N 54°00' W 143°38'0 0.0 994.6 8.4
2014-Dec-16 20:00N 54°00' W 143°38'2 1.7 994.9 8.4
2014-Dec-16 19:00N 53°58' W 143°37'0 0.0 994.7 8.3
2014-Dec-16 18:00N 53°58' W 143°37'1 0.8 994.5 8.3
2014-Dec-16 17:00N 53°59' W 143°37'1 0.1 994.1 8.3
2014-Dec-15 23:00N 54°00' W 143°36'1 0.7 983.0 8.4
2014-Dec-15 22:00N 54°01' W 143°35'1 1.1 982.8 8.4
2014-Dec-15 21:00N 54°01' W 143°37'0 0.0 982.9 8.4
2014-Dec-15 20:00N 54°01' W 143°37'0 0.0 983.0 8.4
2014-Dec-15 19:00N 54°01' W 143°37'0 0.0 982.9 8.3
2014-Dec-15 18:00N 54°01' W 143°37'1 0.7 983.2 8.4
2014-Dec-15 17:00N 54°01' W 143°36'0 0.0 983.4 8.4
2014-Dec-15 16:00N 54°01' W 143°36'0 0.4 984.1 8.4
2014-Dec-15 15:00N 54°01' W 143°37'0 0.0 984.5 8.4
2014-Dec-15 14:00N 54°01' W 143°37'2 2.2 985.1 8.4
2014-Dec-15 13:00N 54°00' W 143°40'2 2.4 985.7 8.4
2014-Dec-15 12:00N 53°59' W 143°37'2 2.4 986.3 8.4
2014-Dec-15 11:00N 54°00' W 143°40'2 2.4 986.8 8.4
2014-Dec-15 10:00N 53°59' W 143°37'0 0.0 987.0 8.4
2014-Dec-15 09:00N 53°59' W 143°37'0 0.2 987.3 8.4
2014-Dec-15 07:00N 53°59' W 143°36'0 0.0 987.0 8.4
2014-Dec-15 06:00N 53°59' W 143°36'1 1.2 986.8 8.4
2014-Dec-15 05:00N 53°59' W 143°38'2 1.9 987.1 8.4
2014-Dec-15 04:00N 54°00' W 143°35'1 0.7 987.3 8.4
2014-Dec-15 03:00N 53°59' W 143°35'1 0.7 987.5 8.4
2014-Dec-15 02:00N 53°59' W 143°35'0 0.4 987.7 8.4
2014-Dec-15 01:00N 53°59' W 143°34'0 0.4 987.7 8.4
2014-Dec-15 00:00N 53°59' W 143°35'1 0.6 988.1 8.4
2014-Dec-14 23:00N 53°58' W 143°35'1 0.9 988.4 8.4
2014-Dec-14 22:00N 53°58' W 143°34'0 0.0 988.9 8.4
2014-Dec-14 21:00N 53°58' W 143°34'1 0.7 989.5 8.4
2014-Dec-14 20:00N 53°57' W 143°34'1 0.6 990.4 8.4
2014-Dec-14 19:00N 53°56' W 143°34'0 0.0 990.7 8.4
2014-Dec-14 18:00N 53°56' W 143°34'0 0.0 990.8 8.4
2014-Dec-14 17:00N 53°56' W 143°34'0 0.0 990.9 8.4
2014-Dec-14 16:00N 53°56' W 143°34'0 0.4 991.1 8.4
2014-Dec-14 15:00N 53°56' W 143°35'1 0.7 991.1 8.4
2014-Dec-14 14:00N 53°56' W 143°34'0 0.0 991.2 8.4
2014-Dec-14 13:00N 53°56' W 143°34'0 0.0 991.6 8.4
2014-Dec-14 12:00N 53°56' W 143°34'0 0.0 991.8 8.4
2014-Dec-14 11:00N 53°56' W 143°34'0 0.0 991.8 8.4
2014-Dec-14 10:00N 53°56' W 143°34'0 0.0 991.6 8.4
2014-Dec-14 09:00N 53°56' W 143°34'0 0.0 991.5 8.4
2014-Dec-14 07:00N 53°56' W 143°34'0 0.0 990.7 8.4
2014-Dec-14 06:00N 53°56' W 143°34'0 0.0 990.2 8.4
2014-Dec-14 05:00N 53°56' W 143°34'1 0.9 989.9 8.4
2014-Dec-14 04:00N 53°55' W 143°33'0 0.0 989.4 8.4
2014-Dec-14 03:00N 53°55' W 143°33'1 1.0 988.8 8.4
2014-Dec-14 02:00N 53°54' W 143°34'0 0.5 987.5 8.4
2014-Dec-14 01:00N 53°54' W 143°33'2 1.9 985.5 8.4
2014-Dec-14 00:00N 53°54' W 143°30'0 0.0 983.0 8.4
2014-Dec-13 23:00N 53°54' W 143°30'5 0.2 985.0 8.4
2014-Dec-13 00:00N 53°50' W 143°29'2 2.5 999.8 8.4
2014-Dec-12 23:00N 53°48' W 143°27'0 0.3 1000.0 8.4
2014-Dec-12 22:00N 53°48' W 143°27'1 0.3 1000.0 8.4
2014-Dec-12 20:00N 53°48' W 143°27'1 0.8 1000.0 8.4
2014-Dec-12 19:00N 53°48' W 143°28'1 0.7 999.8 8.4
2014-Dec-12 18:00N 53°48' W 143°27'0 0.0 999.0 8.4
2014-Dec-12 17:00N 53°48' W 143°27'2 0.4 998.4 8.4
2014-Dec-12 13:00N 53°50' W 143°28'1 0.2 997.0 8.4
2014-Dec-12 05:00N 53°49' W 143°27'1 0.7 994.1 8.5
2014-Dec-12 04:00N 53°48' W 143°27'0 0.0 993.7 8.4
2014-Dec-12 03:00N 53°48' W 143°27'0 0.1 993.3 8.4
2014-Dec-12 02:00N 53°48' W 143°27'1 0.8 993.0 8.4
2014-Dec-12 01:00N 53°49' W 143°27'1 0.9 992.8 8.5
2014-Dec-12 00:00N 53°50' W 143°27'2 1.5 992.5 8.4
2014-Dec-11 23:00N 53°50' W 143°30'0 0.3 992.2 8.5
2014-Dec-11 22:00N 53°49' W 143°30'0 0.2 992.1 8.5
2014-Dec-11 21:00N 53°49' W 143°30'2 2.4 991.9 8.5
2014-Dec-11 20:00N 53°48' W 143°34'0 0.0 991.7 8.5
2014-Dec-11 19:00N 53°48' W 143°34'2 1.2 991.2 8.4
2014-Dec-11 17:00N 53°48' W 143°30'0 0.0 989.4 8.4
2014-Dec-11 16:00N 53°48' W 143°30'1 0.7 988.9 8.4
2014-Dec-11 15:00N 53°48' W 143°29'1 0.5 988.5 8.4
2014-Dec-11 14:00N 53°49' W 143°29'1 0.6 988.2 8.4
2014-Dec-11 13:00N 53°48' W 143°30'2 1.8 987.8 8.4
2014-Dec-11 12:00N 53°50' W 143°29'0 0.0 987.3 8.4
2014-Dec-11 11:00N 53°50' W 143°29'0 0.0 986.7 8.4
2014-Dec-11 08:00N 53°50' W 143°29'0 0.0 984.9 8.4
2014-Dec-11 06:00N 53°50' W 143°29'0 0.4 983.2 8.4
2014-Dec-11 05:00N 53°50' W 143°29'0 0.1 982.4 8.4
2014-Dec-11 02:00N 53°49' W 143°30'0 0.5 981.0 8.4
2014-Dec-11 01:00N 53°49' W 143°30'0 0.3 980.5 8.4
2014-Dec-11 00:00N 53°49' W 143°31'1 1.1 980.3 8.5
2014-Dec-10 23:00N 53°49' W 143°29'1 1.4 980.4 8.4
2014-Dec-10 22:00N 53°50' W 143°28'1 0.5 980.2 8.5
2014-Dec-10 21:00N 53°50' W 143°28'0 0.0 980.5 8.5
2014-Dec-10 20:00N 53°50' W 143°28'1 1.3 980.9 8.5
2014-Dec-10 19:00N 53°51' W 143°26'   980.9 8.4
Track history (hours):
 
Tides and Currents Weather Stations Pressure Air Temp Water Temp Dewpoint Dewpoint Depression Visibility Wind Speed Wind Dir Waves Ship Positions

Drifting buoy 46762

Last reported at 2014-Dec-20 18:00 UTC. Time now 2014-Dec-20 20:07 UTC.
Position N 54°09' W 144°05'.

Barometer 974.8 mb
Water temperature 8.2 ° C

Date/timePositionNaut miles runAvg speedWind from/ knotsBaromVisibWave heightAir tempDewpointWater temp
2014-Dec-20 18:00N 54°09' W 144°05'0 0.0 974.8 8.2
2014-Dec-20 17:00N 54°09' W 144°05'1 0.8 974.2 8.2
2014-Dec-20 16:00N 54°09' W 144°05'0 0.0 973.8 8.2
2014-Dec-20 15:00N 54°09' W 144°05'1 1.2 973.5 8.2
2014-Dec-20 14:00N 54°10' W 144°05'0 0.0 973.3 8.2
2014-Dec-20 13:00N 54°10' W 144°05'1 1.1 973.3 8.1
2014-Dec-20 12:00N 54°10' W 144°06'2 1.8 973.2 8.2
2014-Dec-20 11:00N 54°09' W 144°05'2 1.8 973.1 8.1
2014-Dec-20 10:00N 54°10' W 144°06'2 1.8 973.2 8.1
2014-Dec-20 09:00N 54°09' W 144°05'0 0.0 973.0 8.1
2014-Dec-20 07:00N 54°09' W 144°05'0 0.4 973.0 8.1
2014-Dec-20 06:00N 54°08' W 144°05'1 1.0 973.4 8.2
2014-Dec-20 05:00N 54°08' W 144°05'1 1.1 973.5 8.2
2014-Dec-20 04:00N 54°07' W 144°03'0 0.2 973.6 8.2
2014-Dec-20 03:00N 54°07' W 144°03'1 0.8 973.8 8.2
2014-Dec-20 02:00N 54°07' W 144°01'1 1.2 974.0 8.2
2014-Dec-20 01:00N 54°08' W 144°00'1 1.0 974.0 8.2
2014-Dec-20 00:00N 54°09' W 143°60'2 2.2 974.0 8.2
2014-Dec-19 23:00N 54°09' W 144°03'0 0.0 974.1 8.2
2014-Dec-19 22:00N 54°09' W 144°03'0 0.2 974.4 8.2
2014-Dec-19 21:00N 54°09' W 144°03'1 1.3 974.8 8.2
2014-Dec-19 20:00N 54°10' W 144°01'2 1.8 975.1 8.2
2014-Dec-19 19:00N 54°08' W 144°00'3 3.0 975.1 8.2
2014-Dec-19 18:00N 54°09' W 144°05'4 3.6 974.8 8.2
2014-Dec-19 17:00N 54°07' W 143°60'1 1.1 974.8 8.2
2014-Dec-19 16:00N 54°06' W 143°58'0 0.0 974.8 8.2
2014-Dec-19 15:00N 54°06' W 143°58'0 0.1 974.9 8.2
2014-Dec-19 14:00N 54°06' W 143°58'2 1.7 975.1 8.2
2014-Dec-19 13:00N 54°06' W 143°56'1 1.4 975.4 8.2
2014-Dec-19 12:00N 54°07' W 143°56'1 0.8 975.8 8.2
2014-Dec-19 11:00N 54°07' W 143°58'1 0.3 975.9 8.2
2014-Dec-19 09:00N 54°08' W 143°58'1 0.4 976.1 8.2
2014-Dec-19 07:00N 54°08' W 143°56'3 2.6 975.8 8.2
2014-Dec-19 06:00N 54°05' W 143°58'0 0.0 976.0 8.2
2014-Dec-19 05:00N 54°05' W 143°58'0 0.0 976.1 8.2
2014-Dec-19 04:00N 54°05' W 143°58'1 0.7 976.1 8.2
2014-Dec-19 03:00N 54°06' W 143°57'2 1.5 976.1 8.2
2014-Dec-19 02:00N 54°05' W 143°56'1 1.4 976.0 8.2
2014-Dec-19 01:00N 54°06' W 143°54'1 1.0 975.8 8.2
2014-Dec-19 00:00N 54°07' W 143°54'0 0.0 975.6 8.3
2014-Dec-18 23:00N 54°07' W 143°54'1 0.5 975.9 8.3
2014-Dec-18 21:00N 54°06' W 143°52'0 0.0 976.8 8.3
2014-Dec-18 20:00N 54°06' W 143°52'1 0.9 977.2 8.3
2014-Dec-18 19:00N 54°06' W 143°53'0 0.0 977.0 8.3
2014-Dec-18 18:00N 54°06' W 143°53'1 0.8 977.1 8.2
2014-Dec-18 17:00N 54°05' W 143°53'1 0.6 976.8 8.2
2014-Dec-18 16:00N 54°06' W 143°53'1 1.3 976.8 8.2
2014-Dec-18 15:00N 54°05' W 143°53'1 0.9 976.6 8.2
2014-Dec-18 14:00N 54°04' W 143°51'1 0.5 976.6 8.3
2014-Dec-18 13:00N 54°04' W 143°50'0 0.0 976.5 8.2
2014-Dec-18 12:00N 54°04' W 143°50'2 2.1 976.8 8.3
2014-Dec-18 11:00N 54°03' W 143°48'0 0.0 978.7 8.3
2014-Dec-18 09:00N 54°03' W 143°48'0 0.0 980.5 8.3
2014-Dec-18 07:00N 54°03' W 143°48'0 0.0 982.1 8.3
2014-Dec-18 06:00N 54°03' W 143°48'1 1.0 983.8 8.3
2014-Dec-18 05:00N 54°03' W 143°47'2 1.6 985.1 8.3
2014-Dec-18 04:00N 54°02' W 143°48'1 0.7 986.6 8.3
2014-Dec-18 03:00N 54°01' W 143°48'1 0.9 988.3 8.3
2014-Dec-18 02:00N 54°02' W 143°47'0 0.4 989.5 8.3
2014-Dec-18 01:00N 54°01' W 143°47'3 2.7 990.7 8.3
2014-Dec-18 00:00N 54°03' W 143°44'2 1.8 991.5 8.3
2014-Dec-17 23:00N 54°02' W 143°44'0 0.0 993.2 8.3
2014-Dec-17 22:00N 54°02' W 143°44'1 1.4 994.6 8.3
2014-Dec-17 21:00N 54°02' W 143°46'2 1.1 996.3 8.3
2014-Dec-17 19:00N 53°60' W 143°46'2 0.9 998.1 8.3
2014-Dec-17 17:00N 54°02' W 143°45'2 1.6 999.0 8.3
2014-Dec-17 16:00N 54°01' W 143°43'0 0.0 999.4 8.3
2014-Dec-17 15:00N 54°01' W 143°43'0 0.1 999.9 8.3
2014-Dec-17 14:00N 54°01' W 143°43'2 2.0 1000.2 8.3
2014-Dec-17 13:00N 54°01' W 143°40'0 0.0 1000.7 8.3
2014-Dec-17 12:00N 54°01' W 143°40'0 0.2 1000.4 8.3
2014-Dec-17 11:00N 54°01' W 143°39'1 0.6 999.9 8.3
2014-Dec-17 10:00N 54°01' W 143°40'0 0.0 999.0 8.3
2014-Dec-17 09:00N 54°01' W 143°40'0 0.0 998.6 8.3
2014-Dec-17 08:00N 54°01' W 143°40'0 0.2 998.2 8.3
2014-Dec-17 06:00N 54°00' W 143°41'2 1.6 996.7 8.3
2014-Dec-17 05:00N 54°01' W 143°38'1 1.3 996.0 8.3
2014-Dec-17 04:00N 54°00' W 143°40'0 0.0 995.3 8.3
2014-Dec-17 03:00N 54°00' W 143°40'1 1.3 994.8 8.3
2014-Dec-17 02:00N 53°60' W 143°38'0 0.0 994.5 8.4
2014-Dec-17 01:00N 53°60' W 143°38'0 0.3 994.5 8.4
2014-Dec-17 00:00N 53°60' W 143°37'0 0.3 994.5 8.4
2014-Dec-16 23:00N 53°60' W 143°37'1 0.4 994.2 8.4
2014-Dec-16 21:00N 54°00' W 143°38'0 0.0 994.6 8.4
2014-Dec-16 20:00N 54°00' W 143°38'2 1.7 994.9 8.4
2014-Dec-16 19:00N 53°58' W 143°37'0 0.0 994.7 8.3
2014-Dec-16 18:00N 53°58' W 143°37'1 0.8 994.5 8.3
2014-Dec-16 17:00N 53°59' W 143°37'1 0.1 994.1 8.3
2014-Dec-15 23:00N 54°00' W 143°36'1 0.7 983.0 8.4
2014-Dec-15 22:00N 54°01' W 143°35'1 1.1 982.8 8.4
2014-Dec-15 21:00N 54°01' W 143°37'0 0.0 982.9 8.4
2014-Dec-15 20:00N 54°01' W 143°37'0 0.0 983.0 8.4
2014-Dec-15 19:00N 54°01' W 143°37'0 0.0 982.9 8.3
2014-Dec-15 18:00N 54°01' W 143°37'1 0.7 983.2 8.4
2014-Dec-15 17:00N 54°01' W 143°36'0 0.0 983.4 8.4
2014-Dec-15 16:00N 54°01' W 143°36'0 0.4 984.1 8.4
2014-Dec-15 15:00N 54°01' W 143°37'0 0.0 984.5 8.4
2014-Dec-15 14:00N 54°01' W 143°37'2 2.2 985.1 8.4
2014-Dec-15 13:00N 54°00' W 143°40'2 2.4 985.7 8.4
2014-Dec-15 12:00N 53°59' W 143°37'2 2.4 986.3 8.4
2014-Dec-15 11:00N 54°00' W 143°40'2 2.4 986.8 8.4
2014-Dec-15 10:00N 53°59' W 143°37'0 0.0 987.0 8.4
2014-Dec-15 09:00N 53°59' W 143°37'0 0.2 987.3 8.4
2014-Dec-15 07:00N 53°59' W 143°36'0 0.0 987.0 8.4
2014-Dec-15 06:00N 53°59' W 143°36'1 1.2 986.8 8.4
2014-Dec-15 05:00N 53°59' W 143°38'2 1.9 987.1 8.4
2014-Dec-15 04:00N 54°00' W 143°35'1 0.7 987.3 8.4
2014-Dec-15 03:00N 53°59' W 143°35'1 0.7 987.5 8.4
2014-Dec-15 02:00N 53°59' W 143°35'0 0.4 987.7 8.4
2014-Dec-15 01:00N 53°59' W 143°34'0 0.4 987.7 8.4
2014-Dec-15 00:00N 53°59' W 143°35'1 0.6 988.1 8.4
2014-Dec-14 23:00N 53°58' W 143°35'1 0.9 988.4 8.4
2014-Dec-14 22:00N 53°58' W 143°34'0 0.0 988.9 8.4
2014-Dec-14 21:00N 53°58' W 143°34'1 0.7 989.5 8.4
2014-Dec-14 20:00N 53°57' W 143°34'1 0.6 990.4 8.4
2014-Dec-14 19:00N 53°56' W 143°34'0 0.0 990.7 8.4
2014-Dec-14 18:00N 53°56' W 143°34'0 0.0 990.8 8.4
2014-Dec-14 17:00N 53°56' W 143°34'0 0.0 990.9 8.4
2014-Dec-14 16:00N 53°56' W 143°34'0 0.4 991.1 8.4
2014-Dec-14 15:00N 53°56' W 143°35'1 0.7 991.1 8.4
2014-Dec-14 14:00N 53°56' W 143°34'0 0.0 991.2 8.4
2014-Dec-14 13:00N 53°56' W 143°34'0 0.0 991.6 8.4
2014-Dec-14 12:00N 53°56' W 143°34'0 0.0 991.8 8.4
2014-Dec-14 11:00N 53°56' W 143°34'0 0.0 991.8 8.4
2014-Dec-14 10:00N 53°56' W 143°34'0 0.0 991.6 8.4
2014-Dec-14 09:00N 53°56' W 143°34'0 0.0 991.5 8.4
2014-Dec-14 07:00N 53°56' W 143°34'0 0.0 990.7 8.4
2014-Dec-14 06:00N 53°56' W 143°34'0 0.0 990.2 8.4
2014-Dec-14 05:00N 53°56' W 143°34'1 0.9 989.9 8.4
2014-Dec-14 04:00N 53°55' W 143°33'0 0.0 989.4 8.4
2014-Dec-14 03:00N 53°55' W 143°33'1 1.0 988.8 8.4
2014-Dec-14 02:00N 53°54' W 143°34'0 0.5 987.5 8.4
2014-Dec-14 01:00N 53°54' W 143°33'2 1.9 985.5 8.4
2014-Dec-14 00:00N 53°54' W 143°30'0 0.0 983.0 8.4
2014-Dec-13 23:00N 53°54' W 143°30'5 0.2 985.0 8.4
2014-Dec-13 00:00N 53°50' W 143°29'2 2.5 999.8 8.4
2014-Dec-12 23:00N 53°48' W 143°27'0 0.3 1000.0 8.4
2014-Dec-12 22:00N 53°48' W 143°27'1 0.3 1000.0 8.4
2014-Dec-12 20:00N 53°48' W 143°27'1 0.8 1000.0 8.4
2014-Dec-12 19:00N 53°48' W 143°28'1 0.7 999.8 8.4
2014-Dec-12 18:00N 53°48' W 143°27'0 0.0 999.0 8.4
2014-Dec-12 17:00N 53°48' W 143°27'2 0.4 998.4 8.4
2014-Dec-12 13:00N 53°50' W 143°28'1 0.2 997.0 8.4
2014-Dec-12 05:00N 53°49' W 143°27'1 0.7 994.1 8.5
2014-Dec-12 04:00N 53°48' W 143°27'0 0.0 993.7 8.4
2014-Dec-12 03:00N 53°48' W 143°27'0 0.1 993.3 8.4
2014-Dec-12 02:00N 53°48' W 143°27'1 0.8 993.0 8.4
2014-Dec-12 01:00N 53°49' W 143°27'1 0.9 992.8 8.5
2014-Dec-12 00:00N 53°50' W 143°27'2 1.5 992.5 8.4
2014-Dec-11 23:00N 53°50' W 143°30'0 0.3 992.2 8.5
2014-Dec-11 22:00N 53°49' W 143°30'0 0.2 992.1 8.5
2014-Dec-11 21:00N 53°49' W 143°30'2 2.4 991.9 8.5
2014-Dec-11 20:00N 53°48' W 143°34'0 0.0 991.7 8.5
2014-Dec-11 19:00N 53°48' W 143°34'2 1.2 991.2 8.4
2014-Dec-11 17:00N 53°48' W 143°30'0 0.0 989.4 8.4
2014-Dec-11 16:00N 53°48' W 143°30'1 0.7 988.9 8.4
2014-Dec-11 15:00N 53°48' W 143°29'1 0.5 988.5 8.4
2014-Dec-11 14:00N 53°49' W 143°29'1 0.6 988.2 8.4
2014-Dec-11 13:00N 53°48' W 143°30'2 1.8 987.8 8.4
2014-Dec-11 12:00N 53°50' W 143°29'0 0.0 987.3 8.4
2014-Dec-11 11:00N 53°50' W 143°29'0 0.0 986.7 8.4
2014-Dec-11 08:00N 53°50' W 143°29'0 0.0 984.9 8.4
2014-Dec-11 06:00N 53°50' W 143°29'0 0.4 983.2 8.4
2014-Dec-11 05:00N 53°50' W 143°29'0 0.1 982.4 8.4
2014-Dec-11 02:00N 53°49' W 143°30'0 0.5 981.0 8.4
2014-Dec-11 01:00N 53°49' W 143°30'0 0.3 980.5 8.4
2014-Dec-11 00:00N 53°49' W 143°31'1 1.1 980.3 8.5
2014-Dec-10 23:00N 53°49' W 143°29'1 1.4 980.4 8.4
2014-Dec-10 22:00N 53°50' W 143°28'1 0.5 980.2 8.5
2014-Dec-10 21:00N 53°50' W 143°28'0 0.0 980.5 8.5
2014-Dec-10 20:00N 53°50' W 143°28'1 1.3 980.9 8.5
2014-Dec-10 19:00N 53°51' W 143°26'   980.9 8.4

Dump ship's entire track history